Aviation Digital Data Service (ADDS)

Output produced by TAFs form (0952 UTC 22 September 2017)
found at http://www.aviationweather.gov/adds/tafs/
 
METAR text: RJOC 220900Z 06005KT 9999 FEW050 23/18 Q1010
Conditions at: RJOC (IZUMO AIRPORT , JP) observed 0900 UTC 22 September 2017
Temperature: 23.0°C (73°F)
Dewpoint: 18.0°C (64°F) [RH = 73%]
Pressure (altimeter): 29.82 inches Hg (1010.0 mb)
Winds: from the ENE (60 degrees) at 6 MPH (5 knots; 2.6 m/s)
Visibility: 6 or more miles (10+ km)
Ceiling: at least 12,000 feet AGL
Clouds: few clouds at 5000 feet AGL
Weather: no significant weather observed at this time

Forecast for: RJOC (IZUMO AIRPORT , JP)
Text: TAF RJOC 220505Z 2206/2312 06007KT 9999 FEW025 SCT050
Forecast period: 0600 to 0900 UTC 22 September 2017
Forecast type: FROM: standard forecast or significant change
Winds: from the ENE (60 degrees) at 8 MPH (7 knots; 3.6 m/s)
Visibility: 6 or more miles (10+ km)
Clouds: few clouds at 2500 feet AGL
scattered clouds at 5000 feet AGL
Weather: no significant weather forecast for this period
Text: BECMG 2209/2211 17005KT
Forecast period: 0900 UTC 22 September 2017 to 1200 UTC 23 September 2017
Forecast type: BECOMING: Conditions expected to become as follows by 1100 UTC 22 September 2017
Winds: from the S (170 degrees) at 6 MPH (5 knots; 2.6 m/s)
Visibility: 6 or more miles (10+ km)
Clouds: few clouds at 2500 feet AGL
scattered clouds at 5000 feet AGL
Weather: no significant weather forecast for this period